Aeroporto :
LOGIN :

Iscrizione | Disclaimer

   EN    FR    IT 

 










Sommario :    VFR   VFR Marginale   IFR   IFR Intensivo   IFR Molto Intensivo
Visibilità : 
Base nubi : 
>= 8 km
>= 3000ft
5 / 8 km
1000 / 3000 ft
1500m / 5 km
500 / 1000 ft
800 / 1500m
200 / 500 ft
< 800m
< 200 ft
Simboli :   Temporali  Nebbia  Neve Forte  Precipitazioni Forti  Vento > 20 kt
SIGMETs :   Varie  Temporali  Ghiacco  Turbolenza  Onda orograficha  Ceneri Vulcaniche






- Altitudine del aeroporto : 142 ft
- Codice IATA : ALC


LEAL - Alicante

ULTIMO METAR :
  • 280030Z 31010KT 250V350 CAVOK 19/01 Q1020 NOSIG

METARs OBSOLETI :
  • 280000Z 31008KT CAVOK 18/01 Q1020 NOSIG
  • 272330Z 31008KT CAVOK 19/01 Q1020 NOSIG
  • 272300Z 31008KT CAVOK 19/02 Q1020 NOSIG
  • 272230Z 31010KT CAVOK 19/01 Q1020 NOSIG
  • 272200Z 28010KT 260V320 CAVOK 18/02 Q1020 NOSIG

TAF TAF LEAL
Valido dal 28 a 00 ore il 29 a 00 ore UTC


272300Z 2800/2824 32009KT CAVOK TX22/2812Z TN09/2806Z
BECMG 2801/2803 VRB04KT
TEMPO 2803/2806 29006KT
BECMG 2811/2813 11008KT
BECMG 2818/2820 VRB04KT



MetMap, La meteo Aeronautica in un colpo d'occhio ! - Copyright ORBIFLY Dicembre 2007 - Disclaimer

ORBIFLY MET'MAP TEAM :

Programmazione e sviluppo : Alexandra Zaïnal
Concezione : Baudouin d'Aumeries
Aiuto per la programmazione : Marc-Olivier Méhu
Supporto tecnico e logistico : Manuel Goepfert
Aiuto per la traduzione : Arnaldo La Scala

Contatto : metmap@orbifly.com




FONTI E CREDITI :

   NOAA